createdAt,value
2022-08-07T00:02:41.057Z,12.13
2022-08-07T00:06:20.472Z,13.45
2022-08-07T00:10:26.435Z,14.57
2022-08-07T00:14:09.587Z,16.02
2022-08-07T00:17:55.059Z,15.95
2022-08-07T00:21:57.307Z,13.80
2022-08-07T00:25:41.572Z,17.15
2022-08-07T00:29:31.279Z,12.18
2022-08-07T00:33:14.280Z,11.23
2022-08-07T00:36:57.249Z,9.77
2022-08-07T00:40:40.774Z,14.00
2022-08-07T00:48:18.630Z,12.00
2022-08-07T00:52:08.683Z,11.57
2022-08-07T00:56:03.325Z,13.02
2022-08-07T00:59:46.041Z,16.23
2022-08-07T01:03:55.709Z,15.32
2022-08-07T01:07:32.988Z,14.90
2022-08-07T01:12:09.225Z,18.80
2022-08-07T01:15:19.493Z,12.32
2022-08-07T01:19:01.476Z,11.38
2022-08-07T01:23:00.478Z,9.68
2022-08-07T01:26:51.883Z,10.77
2022-08-07T01:30:38.436Z,10.65
2022-08-07T01:34:24.010Z,10.52
2022-08-07T01:38:12.879Z,12.30
2022-08-07T01:42:38.250Z,13.05
2022-08-07T01:46:12.247Z,10.40
2022-08-07T01:49:54.851Z,10.98
2022-08-07T01:54:08.583Z,8.93
2022-08-07T01:58:01.179Z,11.80
2022-08-07T02:02:00.089Z,9.87
2022-08-07T02:05:59.278Z,8.65
2022-08-07T02:09:52.852Z,8.40
2022-08-07T02:13:57.533Z,8.68
2022-08-07T02:17:49.736Z,8.82
2022-08-07T02:21:56.372Z,8.85
2022-08-07T02:26:31.116Z,9.38
2022-08-07T02:29:48.738Z,9.57
2022-08-07T02:33:57.504Z,8.30
2022-08-07T02:37:44.015Z,9.15
2022-08-07T02:41:33.150Z,8.68
2022-08-07T02:45:58.511Z,7.85
2022-08-07T02:49:56.269Z,8.90
2022-08-07T02:53:28.126Z,8.55
2022-08-07T02:57:14.295Z,8.57
2022-08-07T03:00:58.203Z,9.55
2022-08-07T03:04:42.981Z,8.73
2022-08-07T03:08:29.340Z,7.43
2022-08-07T03:12:21.836Z,8.23
2022-08-07T03:16:05.062Z,8.60
2022-08-07T03:19:52.912Z,7.35
2022-08-07T03:24:21.159Z,6.38
2022-08-07T03:28:09.045Z,9.13
2022-08-07T03:31:49.851Z,10.20
2022-08-07T03:35:43.576Z,11.40
2022-08-07T03:39:45.930Z,7.53
2022-08-07T03:43:32.232Z,10.20
2022-08-07T03:47:15.583Z,9.27
2022-08-07T03:50:58.122Z,11.77
2022-08-07T03:54:54.954Z,13.20
2022-08-07T03:59:09.242Z,13.23
2022-08-07T04:02:43.198Z,8.77
2022-08-07T04:06:37.633Z,10.93
2022-08-07T04:10:20.807Z,7.20
2022-08-07T04:14:10.456Z,10.25
2022-08-07T04:18:57.225Z,8.52
2022-08-07T04:22:17.302Z,8.80
2022-08-07T04:25:59.889Z,5.18
2022-08-07T04:29:58.567Z,7.72
2022-08-07T04:33:46.198Z,7.43
2022-08-07T04:37:40.441Z,6.78
2022-08-07T04:41:30.113Z,6.88
2022-08-07T04:45:44.411Z,6.70
2022-08-07T04:49:39.644Z,6.45
2022-08-07T04:54:05.323Z,7.05
2022-08-07T04:58:09.702Z,10.30
2022-08-07T05:02:16.951Z,7.72
2022-08-07T05:06:16.390Z,9.48
2022-08-07T05:10:45.537Z,7.38
2022-08-07T05:14:52.323Z,7.70
2022-08-07T05:18:56.948Z,8.55
2022-08-07T05:22:41.240Z,7.00
2022-08-07T05:26:25.990Z,7.80
2022-08-07T05:30:09.239Z,8.55
2022-08-07T05:34:04.539Z,7.75
2022-08-07T05:37:48.271Z,7.45
2022-08-07T05:42:01.664Z,10.27
2022-08-07T05:45:48.358Z,9.05
2022-08-07T05:49:40.659Z,7.05
2022-08-07T05:54:12.052Z,5.72
2022-08-07T05:57:29.964Z,6.68
2022-08-07T06:01:14.375Z,5.35
2022-08-07T06:05:03.621Z,6.22
2022-08-07T06:08:46.821Z,6.43
2022-08-07T06:12:32.956Z,5.70
2022-08-07T06:16:16.475Z,8.27
2022-08-07T06:20:03.778Z,7.57
2022-08-07T06:24:48.190Z,6.95
2022-08-07T06:28:01.061Z,6.00
2022-08-07T06:31:49.435Z,7.78
2022-08-07T06:35:45.754Z,6.00
2022-08-07T06:40:12.831Z,6.03
2022-08-07T06:43:39.409Z,5.60
2022-08-07T06:47:22.526Z,4.32
2022-08-07T06:51:08.389Z,10.95
2022-08-07T06:55:31.288Z,3.63
2022-08-07T07:00:14.270Z,3.60
2022-08-07T07:03:01.358Z,3.70
2022-08-07T07:07:00.614Z,4.82
2022-08-07T07:10:47.499Z,5.88
2022-08-07T07:15:24.055Z,4.90
2022-08-07T07:19:56.578Z,3.92
2022-08-07T07:24:09.834Z,3.30
2022-08-07T07:27:18.535Z,3.85
2022-08-07T07:31:08.165Z,4.18
2022-08-07T07:35:00.505Z,4.47
2022-08-07T07:38:47.605Z,3.35
2022-08-07T07:42:33.400Z,3.70
2022-08-07T07:46:40.020Z,3.88
2022-08-07T07:50:33.285Z,4.50
2022-08-07T07:54:21.008Z,5.90
2022-08-07T07:58:05.039Z,4.65
2022-08-07T08:02:02.667Z,5.40
2022-08-07T08:05:54.803Z,2.67
2022-08-07T08:09:52.596Z,3.85
2022-08-07T08:13:53.950Z,3.40
2022-08-07T08:17:58.059Z,7.30
2022-08-07T08:22:03.618Z,3.58
2022-08-07T08:26:08.385Z,2.80
2022-08-07T08:30:02.983Z,4.75
2022-08-07T08:33:49.782Z,3.50
2022-08-07T08:38:00.697Z,5.85
2022-08-07T08:42:05.160Z,3.65
2022-08-07T08:46:21.995Z,4.18
2022-08-07T08:50:35.363Z,4.05
2022-08-07T08:54:32.364Z,6.78
2022-08-07T08:58:24.734Z,3.92
2022-08-07T09:02:37.568Z,3.70
2022-08-07T09:06:48.336Z,4.15
2022-08-07T09:10:46.845Z,3.63
2022-08-07T09:14:50.755Z,3.35
2022-08-07T09:19:52.654Z,6.53
2022-08-07T09:24:32.048Z,5.13
2022-08-07T09:28:03.873Z,4.68
2022-08-07T09:31:56.436Z,4.82
2022-08-07T09:36:05.467Z,4.22
2022-08-07T09:39:57.699Z,4.35
2022-08-07T09:44:06.602Z,4.18
2022-08-07T09:48:25.160Z,3.25
2022-08-07T09:52:34.976Z,3.57
2022-08-07T09:56:37.227Z,3.92
2022-08-07T10:00:30.013Z,3.70
2022-08-07T10:05:12.503Z,5.65
2022-08-07T10:09:42.579Z,6.05
2022-08-07T10:14:01.837Z,3.67
2022-08-07T10:18:00.961Z,5.50
2022-08-07T10:22:33.876Z,3.40
2022-08-07T10:26:44.170Z,3.50
2022-08-07T10:30:50.377Z,3.95
2022-08-07T10:34:41.393Z,4.68
2022-08-07T10:38:47.955Z,4.93
2022-08-07T10:42:50.011Z,4.38
2022-08-07T10:46:43.289Z,4.07
2022-08-07T10:50:33.407Z,6.43
2022-08-07T10:54:18.642Z,4.57
2022-08-07T10:58:10.237Z,4.43
2022-08-07T11:02:34.330Z,4.57
2022-08-07T11:06:26.863Z,4.97
2022-08-07T11:10:33.757Z,3.75
2022-08-07T11:14:45.196Z,4.35
2022-08-07T11:18:50.850Z,3.72
2022-08-07T11:23:02.623Z,3.95
2022-08-07T11:26:50.567Z,3.50
2022-08-07T11:30:44.219Z,3.90
2022-08-07T11:34:48.942Z,3.70
2022-08-07T11:39:08.506Z,3.45
2022-08-07T11:43:08.868Z,4.68
2022-08-07T11:47:19.995Z,3.00
2022-08-07T11:51:41.399Z,4.60
2022-08-07T11:56:25.759Z,4.85
2022-08-07T12:00:19.338Z,3.15
2022-08-07T12:04:59.508Z,2.92
2022-08-07T12:08:58.586Z,3.38
2022-08-07T12:12:53.174Z,3.45
2022-08-07T12:16:46.793Z,3.55
2022-08-07T12:20:46.241Z,8.03
2022-08-07T12:25:17.857Z,4.97
2022-08-07T12:29:41.463Z,3.33
2022-08-07T12:33:46.278Z,3.35
2022-08-07T12:38:10.353Z,4.63
2022-08-07T12:41:49.405Z,4.80
2022-08-07T12:45:59.980Z,4.47
2022-08-07T12:50:04.377Z,2.80
2022-08-07T12:54:37.340Z,4.25
2022-08-07T12:58:13.006Z,3.45
2022-08-07T13:02:13.198Z,3.17
2022-08-07T13:06:22.029Z,2.55
2022-08-07T13:10:28.620Z,4.25
2022-08-07T13:14:59.107Z,3.00
2022-08-07T13:19:02.655Z,3.83
2022-08-07T13:22:56.509Z,3.28
2022-08-07T13:26:54.071Z,3.33
2022-08-07T13:30:44.159Z,2.75
2022-08-07T13:35:00.262Z,4.85
2022-08-07T13:38:59.852Z,5.47
2022-08-07T13:42:45.937Z,5.13
2022-08-07T13:46:48.892Z,3.78
2022-08-07T13:51:00.177Z,3.13
2022-08-07T13:54:40.637Z,2.42
2022-08-07T13:58:58.115Z,4.32
2022-08-07T14:02:51.037Z,2.88
2022-08-07T14:06:40.001Z,10.93
2022-08-07T14:10:28.411Z,3.53
2022-08-07T14:14:15.726Z,2.35
2022-08-07T14:18:23.662Z,2.28
2022-08-07T14:22:12.402Z,3.55
2022-08-07T14:26:01.911Z,2.05
2022-08-07T14:30:07.804Z,2.95
2022-08-07T14:33:54.319Z,3.30
2022-08-07T14:37:43.185Z,2.70
2022-08-07T14:42:19.720Z,2.95
2022-08-07T14:45:55.343Z,2.78
2022-08-07T14:49:56.836Z,4.35
2022-08-07T14:54:05.486Z,2.88
2022-08-07T14:57:55.260Z,4.90
2022-08-07T15:01:51.095Z,4.22
2022-08-07T15:05:35.018Z,2.92
2022-08-07T15:10:00.764Z,2.60
2022-08-07T15:14:00.319Z,3.33
2022-08-07T15:17:58.397Z,2.80
2022-08-07T15:22:04.430Z,3.72
2022-08-07T15:25:52.102Z,3.20
2022-08-07T15:30:10.334Z,3.35
2022-08-07T15:33:42.984Z,3.97
2022-08-07T15:38:17.214Z,3.50
2022-08-07T15:46:32.360Z,2.35
2022-08-07T15:54:27.439Z,2.58
2022-08-07T15:58:20.673Z,2.08
2022-08-07T16:02:05.142Z,2.10
2022-08-07T16:05:50.302Z,3.47
2022-08-07T16:09:56.871Z,2.92
2022-08-07T16:14:03.962Z,2.55
2022-08-07T16:18:49.479Z,2.22
2022-08-07T16:22:37.797Z,2.17
2022-08-07T16:27:00.036Z,2.22
2022-08-07T16:31:57.374Z,3.38
2022-08-07T16:35:59.049Z,2.35
2022-08-07T16:40:28.408Z,4.30
2022-08-07T16:45:04.032Z,4.70
2022-08-07T16:50:29.198Z,2.38
2022-08-07T16:53:57.229Z,3.65
2022-08-07T17:02:08.907Z,2.80
2022-08-07T17:06:30.074Z,3.25
2022-08-07T17:10:32.249Z,4.95
2022-08-07T17:14:32.430Z,2.53
2022-08-07T17:18:53.651Z,4.10
2022-08-07T17:23:00.707Z,2.60
2022-08-07T17:27:19.874Z,3.28
2022-08-07T17:31:16.327Z,3.42
2022-08-07T17:35:50.061Z,3.60
2022-08-07T17:39:57.616Z,4.35
2022-08-07T17:44:03.221Z,3.13
2022-08-07T17:47:59.728Z,2.85
2022-08-07T17:52:00.377Z,2.58
2022-08-07T17:56:25.920Z,2.47
2022-08-07T18:00:27.425Z,3.00
2022-08-07T18:04:37.514Z,3.78
2022-08-07T18:08:24.515Z,4.68
2022-08-07T18:12:30.221Z,3.10
2022-08-07T18:16:32.975Z,3.55
2022-08-07T18:21:06.352Z,3.60
2022-08-07T18:24:40.211Z,4.03
2022-08-07T18:28:35.413Z,4.60
2022-08-07T18:32:38.175Z,3.38
2022-08-07T18:36:40.298Z,3.85
2022-08-07T18:40:42.517Z,5.00
2022-08-07T18:45:43.783Z,4.47
2022-08-07T18:50:31.920Z,3.45
2022-08-07T18:53:36.979Z,3.05
2022-08-07T18:58:15.098Z,5.05
2022-08-07T19:02:32.725Z,4.22
2022-08-07T19:06:34.010Z,6.95
2022-08-07T19:10:32.044Z,3.28
2022-08-07T19:15:00.546Z,3.70
2022-08-07T19:19:02.478Z,3.78
2022-08-07T19:23:03.157Z,5.05
2022-08-07T19:28:57.421Z,3.97
2022-08-07T19:31:59.692Z,3.70
2022-08-07T19:35:33.760Z,4.30
2022-08-07T19:39:40.421Z,3.88
2022-08-07T19:43:45.660Z,4.85
2022-08-07T19:47:36.378Z,3.80
2022-08-07T19:51:51.044Z,4.50
2022-08-07T19:55:24.193Z,5.72
2022-08-07T19:59:17.527Z,3.47
2022-08-07T20:03:32.739Z,3.70
2022-08-07T20:07:11.130Z,5.72
2022-08-07T20:11:01.860Z,4.72
2022-08-07T20:14:54.096Z,3.92
2022-08-07T20:18:43.457Z,3.65
2022-08-07T20:22:34.347Z,6.85
2022-08-07T20:26:20.414Z,4.05
2022-08-07T20:30:12.522Z,3.33
2022-08-07T20:34:07.143Z,6.03
2022-08-07T20:37:59.159Z,3.45
2022-08-07T20:41:48.266Z,4.35
2022-08-07T20:46:26.188Z,3.47
2022-08-07T20:49:59.019Z,3.75
2022-08-07T20:54:02.881Z,3.47
2022-08-07T20:58:11.796Z,3.70
2022-08-07T21:02:02.092Z,4.15
2022-08-07T21:05:56.322Z,5.63
2022-08-07T21:09:53.093Z,5.13
2022-08-07T21:14:16.868Z,4.57
2022-08-07T21:18:03.403Z,6.15
2022-08-07T21:22:02.977Z,5.70
2022-08-07T21:26:07.418Z,4.50
2022-08-07T21:30:01.316Z,9.95
2022-08-07T21:34:02.986Z,5.68
2022-08-07T21:38:08.837Z,9.07
2022-08-07T21:46:32.143Z,5.60
2022-08-07T21:50:25.407Z,6.55
2022-08-07T21:54:30.513Z,6.15
2022-08-07T21:58:57.306Z,7.43
2022-08-07T22:02:50.277Z,5.70
2022-08-07T22:10:35.615Z,5.53
2022-08-07T22:14:34.563Z,6.90
2022-08-07T22:18:32.962Z,6.45
2022-08-07T22:22:29.065Z,6.13
2022-08-07T22:26:13.765Z,6.03
2022-08-07T22:30:12.764Z,6.85
2022-08-07T22:34:01.315Z,4.53
2022-08-07T22:38:08.076Z,5.97
2022-08-07T22:42:03.599Z,5.80
2022-08-07T22:47:02.243Z,5.18
2022-08-07T22:50:56.082Z,6.03
2022-08-07T22:54:49.277Z,5.65
2022-08-07T22:58:55.556Z,5.40
2022-08-07T23:03:11.058Z,5.68
2022-08-07T23:07:42.013Z,6.68
2022-08-07T23:11:46.158Z,4.95
2022-08-07T23:20:52.319Z,6.73
2022-08-07T23:25:00.617Z,6.35
2022-08-07T23:29:43.343Z,5.80
2022-08-07T23:34:22.731Z,5.07
2022-08-07T23:38:19.299Z,6.13
2022-08-07T23:42:49.759Z,4.72
2022-08-07T23:46:44.408Z,5.28
2022-08-07T23:50:39.163Z,4.80
2022-08-07T23:54:59.475Z,6.70
